الصفحة الرئيسية
METAR-TAF:

METAR-TAF

مطار :

Cold Bay, ألاسكا, الولايات المتحدة

دائرة عرض: 55-13-15N, خط طول: 162-43-40W, ارتفاع: 30 متر

مراقبة الطقس الحالي

تاريخ ووقت الإصدار 32 دقيقة قبل الساعة 02:02UTC
ريح 10 عقدة من الشمال الغربي
درجة الحرارة 9°درجة مئوية
الرطوبة 81%
ضغط 1015 hPa
الرؤية: 16.1 كم
ملبد بالغيوم على ارتفاع 1200 قدم

METAR: PACD 180202Z AUTO 32010KT 10SM OVC012 09/06 A2997 RMK AO2 T00940061 TSNO $

زمن: 18:34 (02:34 UTC)

توقعات

تاريخ ووقت الإصدار 3ساعات و 13 دقيقة قبل الساعة 23:21UTC
التوقعات صالحة من18 الساعة 00 UTC إلى 18 الساعة 24 UTC
ريح 10 عقدة من الشمال/الشمال الغربي
الرؤية: 10 كم
ملبد بالغيوم على ارتفاع 900 قدم
مؤقت
من 18 الساعة 00 UTC إلى 18 الساعة 04 UTC
ملبد بالغيوم على ارتفاع 1200 قدم
من 18 الساعة 0800 UTC
ريح 12 عقدة من الشمال/الشمال الغربي
الرؤية: 10 كم
غيوم متفرقة على ارتفاع 400 قدم
ملبد بالغيوم على ارتفاع 700 قدم

TAF: PACD 172321Z 1800/1824 33010KT P6SM OVC009 TEMPO 1800/1804 OVC012 FM180800 33012KT P6SM SCT004 OVC007

أرصاد الطقس والتوقعات من أكثر من 4000 مطار (تقارير الطقس للمطار METAR والتنبؤ بالطقس بالمطارTAF).

المحطات المتاحة هي النقط الصفراء والحمراء على الخريطة.

حرك المؤشر فوق النقطة لمعرفة اسم المحطة.

ثم انقر لمعرفة أرصاد وتوقعات الطقس.

لتغيير الخارطة: اضغط على الأزرار الخضراء مع رمز الصليب الأسود للتكبير. على الزر الأخضر مع شرطة للتصغير، أو على الأسهم الخضراء للخرائط المجاورة.


METAR-TAF: